Time;durP1;ratioP1;P1;durP2;ratioP2;P2;SDS_P1;SDS_P2;PMS_P1;PMS_P2;Temp;Humidity;BMP_temperature;BMP_pressure;BME280_temperature;BME280_humidity;BME280_pressure;Samples;Min_cycle;Max_cycle;Signal;HPM_P1;HPM_P2
2021/07/19 00:01:19;;;;;;;20.58;10.43;;;14.90;99.90;;;;;;4199731;28;20046;-82
2021/07/19 00:03:19;;;;;;;20.13;10.25;;;14.80;99.90;;;;;;4195190;28;20032;-84
2021/07/19 00:05:24;;;;;;;14.15;9.48;;;14.80;99.90;;;;;;4196329;28;20503;-85
2021/07/19 00:07:26;;;;;;;14.13;10.45;;;14.80;99.90;;;;;;4208617;28;20035;-85
2021/07/19 00:09:26;;;;;;;16.95;10.63;;;14.70;99.90;;;;;;4198929;28;20058;-84
2021/07/19 00:11:27;;;;;;;13.38;10.25;;;14.70;99.90;;;;;;4213109;28;20396;-85
2021/07/19 00:13:28;;;;;;;13.02;11.00;;;14.70;99.90;;;;;;4213248;28;20035;-84
2021/07/19 00:15:31;;;;;;;12.20;9.68;;;14.70;99.90;;;;;;4211856;28;20116;-84
2021/07/19 00:17:31;;;;;;;18.77;11.10;;;14.60;99.90;;;;;;4195045;28;20115;-79
2021/07/19 00:19:32;;;;;;;17.80;10.88;;;14.60;99.90;;;;;;4213219;28;20363;-83
2021/07/19 00:21:33;;;;;;;17.80;10.77;;;14.50;99.90;;;;;;4195012;28;20088;-82
2021/07/19 00:23:34;;;;;;;17.08;10.45;;;14.50;99.90;;;;;;4191747;28;20531;-83
2021/07/19 00:25:35;;;;;;;11.27;9.30;;;14.40;99.90;;;;;;4200616;28;20038;-82
2021/07/19 00:27:36;;;;;;;16.42;11.25;;;14.40;99.90;;;;;;4213243;28;20370;-84
2021/07/19 00:29:37;;;;;;;15.85;9.93;;;14.40;99.90;;;;;;4212544;28;20724;-82
2021/07/19 00:31:38;;;;;;;16.65;11.25;;;14.30;99.90;;;;;;4211981;28;20039;-84
2021/07/19 00:33:40;;;;;;;15.50;11.45;;;14.30;99.90;;;;;;4212239;28;20028;-82
2021/07/19 00:35:41;;;;;;;15.93;9.83;;;14.20;99.90;;;;;;4212694;28;20032;-83
2021/07/19 00:37:42;;;;;;;15.32;10.25;;;14.20;99.90;;;;;;4212572;28;20282;-84
2021/07/19 00:39:43;;;;;;;23.00;11.88;;;14.10;99.90;;;;;;4194640;28;20081;-84
2021/07/19 00:41:44;;;;;;;16.13;11.10;;;14.10;99.90;;;;;;4211722;28;20044;-84
2021/07/19 00:43:46;;;;;;;15.95;10.40;;;14.10;99.90;;;;;;4179126;28;20070;-85
2021/07/19 00:45:46;;;;;;;16.33;10.93;;;14.10;99.90;;;;;;4186454;28;20115;-85
2021/07/19 00:47:50;;;;;;;19.77;10.27;;;14.10;99.90;;;;;;4211852;28;20039;-84
2021/07/19 00:49:51;;;;;;;16.40;9.70;;;14.00;99.90;;;;;;4212265;28;20032;-84
2021/07/19 00:51:52;;;;;;;15.80;10.02;;;14.00;99.90;;;;;;4213038;28;20047;-80
2021/07/19 00:53:56;;;;;;;17.05;11.10;;;13.90;99.90;;;;;;4212831;28;20119;-84
2021/07/19 00:55:59;;;;;;;17.33;11.13;;;13.90;99.90;;;;;;4199040;28;20040;-82
2021/07/19 00:58:02;;;;;;;16.95;10.65;;;13.80;99.90;;;;;;4195410;28;20032;-84
2021/07/19 01:00:09;;;;;;;17.80;11.38;;;13.80;99.90;;;;;;4193912;28;20060;-83
2021/07/19 01:02:12;;;;;;;14.25;10.18;;;13.80;99.90;;;;;;4194971;28;20020;-84
2021/07/19 01:04:14;;;;;;;16.63;11.07;;;13.80;99.90;;;;;;4213679;28;20070;-84
2021/07/19 01:06:17;;;;;;;19.25;11.90;;;13.80;99.90;;;;;;4195587;28;20035;-84
2021/07/19 01:08:19;;;;;;;19.88;12.38;;;13.80;99.90;;;;;;4195225;28;20078;-84
2021/07/19 01:10:19;;;;;;;20.38;11.93;;;13.80;99.90;;;;;;4194551;28;20055;-85
2021/07/19 01:12:21;;;;;;;20.13;11.70;;;13.80;99.90;;;;;;4212864;28;20024;-86
2021/07/19 01:14:21;;;;;;;20.25;12.30;;;13.80;99.90;;;;;;4213302;28;20032;-86
2021/07/19 01:16:23;;;;;;;20.95;12.35;;;13.70;99.90;;;;;;4213390;28;20050;-84
2021/07/19 01:18:23;;;;;;;19.20;11.32;;;13.80;99.90;;;;;;4195666;28;20050;-83
2021/07/19 01:20:47;;;;;;;16.65;10.75;;;13.80;99.90;;;;;;4197230;28;20033;-84
2021/07/19 01:23:27;;;;;;;12.82;9.95;;;13.70;99.90;;;;;;4193093;28;20507;-83
2021/07/19 01:25:54;;;;;;;20.33;11.48;;;13.70;99.90;;;;;;4188325;28;20167;-83
2021/07/19 01:28:30;;;;;;;17.27;12.05;;;13.60;99.90;;;;;;4178244;28;20463;-81
2021/07/19 01:30:31;;;;;;;19.67;13.23;;;13.60;99.90;;;;;;4215247;28;20414;-83
2021/07/19 01:32:37;;;;;;;17.85;11.90;;;13.60;99.90;;;;;;4197760;28;20199;-81
2021/07/19 01:34:40;;;;;;;17.27;12.13;;;13.60;99.90;;;;;;4216290;28;20475;-84
2021/07/19 01:36:47;;;;;;;17.65;11.30;;;13.60;99.90;;;;;;4182697;28;20027;-84
2021/07/19 01:38:48;;;;;;;19.88;12.07;;;13.50;99.90;;;;;;4197962;28;20099;-84
2021/07/19 01:40:51;;;;;;;20.58;12.20;;;13.50;99.90;;;;;;4215321;28;20359;-84
2021/07/19 01:42:52;;;;;;;;;;;13.50;99.90;;;;;;4198238;28;20029;-79
2021/07/19 01:44:54;;;;;;;17.92;12.68;;;13.40;99.90;;;;;;4206731;28;20319;-84
2021/07/19 01:46:57;;;;;;;21.95;13.15;;;13.40;99.90;;;;;;4213206;28;20028;-84
2021/07/19 01:49:00;;;;;;;26.75;13.77;;;13.40;99.90;;;;;;4212230;28;20059;-84
2021/07/19 01:51:02;;;;;;;22.13;13.13;;;13.40;99.90;;;;;;4215545;28;20032;-85
2021/07/19 01:53:03;;;;;;;23.87;13.43;;;13.40;99.90;;;;;;4197597;28;20027;-83
2021/07/19 01:55:05;;;;;;;18.85;12.30;;;13.40;99.90;;;;;;4215536;28;20088;-85
2021/07/19 01:57:07;;;;;;;21.23;12.80;;;13.40;99.90;;;;;;4187975;28;20040;-85
2021/07/19 01:59:07;;;;;;;21.98;13.98;;;13.40;99.90;;;;;;4214342;28;20115;-84
2021/07/19 02:01:08;;;;;;;16.95;11.88;;;13.40;99.90;;;;;;4197737;28;20040;-83
2021/07/19 02:03:09;;;;;;;22.70;13.30;;;13.30;99.90;;;;;;4216116;28;20028;-84
2021/07/19 02:05:12;;;;;;;24.98;12.98;;;13.30;99.90;;;;;;4197823;28;20390;-85
2021/07/19 02:07:13;;;;;;;;;;;13.30;99.90;;;;;;4194721;28;20426;-82
2021/07/19 02:09:15;;;;;;;24.73;13.77;;;13.30;99.90;;;;;;4183655;28;19912;-84
2021/07/19 02:11:21;;;;;;;29.58;15.23;;;13.30;99.90;;;;;;4215990;28;20032;-85
2021/07/19 02:13:25;;;;;;;30.73;14.27;;;13.20;99.90;;;;;;4215602;28;20050;-84
2021/07/19 02:15:27;;;;;;;19.70;12.23;;;13.20;99.90;;;;;;4215815;28;20020;-85
2021/07/19 02:17:29;;;;;;;21.35;13.88;;;13.10;99.90;;;;;;4197263;28;20032;-83
2021/07/19 02:19:30;;;;;;;18.60;12.90;;;13.10;99.90;;;;;;4196817;28;20037;-84
2021/07/19 02:21:31;;;;;;;20.60;12.43;;;13.10;99.90;;;;;;4200588;28;20513;-84
2021/07/19 02:23:33;;;;;;;22.40;13.50;;;13.10;99.90;;;;;;4197294;28;20029;-84
2021/07/19 02:25:36;;;;;;;21.00;13.55;;;13.10;99.90;;;;;;4215406;28;20119;-84
2021/07/19 02:27:38;;;;;;;21.98;13.57;;;13.10;99.90;;;;;;4214617;28;20047;-85
2021/07/19 02:29:39;;;;;;;26.35;12.88;;;13.10;99.90;;;;;;4214266;28;20052;-84
2021/07/19 02:31:40;;;;;;;20.52;13.23;;;13.10;99.90;;;;;;4215452;28;20428;-85
2021/07/19 02:33:42;;;;;;;26.23;14.13;;;13.10;99.90;;;;;;4197390;28;20146;-85
2021/07/19 02:35:42;;;;;;;25.42;13.90;;;13.10;99.90;;;;;;4202212;28;20029;-84
2021/07/19 02:37:46;;;;;;;22.88;12.98;;;13.10;99.90;;;;;;4196895;28;20330;-84
2021/07/19 02:39:47;;;;;;;23.10;13.18;;;13.10;99.90;;;;;;4211523;28;20032;-81
2021/07/19 02:41:49;;;;;;;23.88;14.10;;;13.20;99.90;;;;;;4202225;28;20029;-83
2021/07/19 02:43:53;;;;;;;21.98;14.65;;;13.20;99.90;;;;;;4214196;28;20043;-85
2021/07/19 02:45:56;;;;;;;24.35;15.15;;;13.20;99.90;;;;;;4216243;28;20028;-84
2021/07/19 02:48:01;;;;;;;28.30;15.40;;;13.20;99.90;;;;;;4215691;28;20032;-84
2021/07/19 02:50:04;;;;;;;23.95;15.48;;;13.20;99.90;;;;;;4195076;28;20032;-83
2021/07/19 02:52:06;;;;;;;;;;;13.20;99.90;;;;;;4196841;28;20036;-85
2021/07/19 02:54:07;;;;;;;25.92;16.33;;;13.20;99.90;;;;;;4196414;28;19908;-82
2021/07/19 02:56:08;;;;;;;24.42;15.20;;;13.30;99.90;;;;;;4214055;28;20557;-84
2021/07/19 02:58:16;;;;;;;26.40;15.02;;;13.30;99.90;;;;;;4214548;28;20033;-84
2021/07/19 03:00:18;;;;;;;23.50;14.68;;;13.30;99.90;;;;;;4201342;28;20028;-84
2021/07/19 03:02:22;;;;;;;29.05;15.80;;;13.20;99.90;;;;;;4196587;28;20498;-84
2021/07/19 03:04:24;;;;;;;23.15;15.68;;;13.20;99.90;;;;;;4215322;28;20024;-83
2021/07/19 03:06:33;;;;;;;25.50;14.73;;;13.20;99.90;;;;;;4197217;28;20048;-84
2021/07/19 03:08:37;;;;;;;29.00;15.73;;;13.30;99.90;;;;;;4196272;28;20040;-84
2021/07/19 03:10:39;;;;;;;30.42;17.10;;;13.20;99.90;;;;;;4184114;28;20043;-84
2021/07/19 03:12:41;;;;;;;26.10;16.08;;;13.20;99.90;;;;;;4208414;28;20036;-84
2021/07/19 03:14:43;;;;;;;26.25;15.75;;;13.10;99.90;;;;;;4206714;28;20035;-83
2021/07/19 03:16:45;;;;;;;24.52;15.52;;;13.20;99.90;;;;;;4214660;28;20016;-85
2021/07/19 03:18:46;;;;;;;25.35;15.43;;;13.20;99.90;;;;;;4213947;28;20078;-84
2021/07/19 03:20:48;;;;;;;23.08;13.98;;;13.20;99.90;;;;;;4213938;28;20051;-84
2021/07/19 03:22:52;;;;;;;26.63;14.75;;;13.10;99.90;;;;;;4189589;28;20051;-84
2021/07/19 03:24:58;;;;;;;30.25;15.10;;;13.10;99.90;;;;;;4189099;28;20482;-84
2021/07/19 03:26:59;;;;;;;24.92;14.88;;;13.00;99.90;;;;;;4214458;28;20424;-83
2021/07/19 03:29:01;;;;;;;29.63;15.45;;;13.00;99.90;;;;;;4196093;28;20033;-85
2021/07/19 03:31:03;;;;;;;25.25;14.27;;;12.90;99.90;;;;;;4205739;28;20020;-83
2021/07/19 03:33:05;;;;;;;33.97;16.27;;;12.90;99.90;;;;;;4214432;28;20021;-84
2021/07/19 03:35:07;;;;;;;29.20;15.73;;;12.90;99.90;;;;;;4192570;28;20082;-84
2021/07/19 03:37:09;;;;;;;28.17;14.75;;;12.90;99.90;;;;;;4212198;28;20051;-84
2021/07/19 03:39:12;;;;;;;32.50;14.70;;;12.90;99.90;;;;;;4196569;28;20028;-83
2021/07/19 03:41:14;;;;;;;28.73;16.38;;;12.90;99.90;;;;;;4188242;28;20047;-83
2021/07/19 03:43:16;;;;;;;26.98;16.60;;;12.90;99.90;;;;;;4205526;28;20032;-84
2021/07/19 03:45:17;;;;;;;28.65;15.20;;;12.90;99.90;;;;;;4195131;28;20036;-84
2021/07/19 03:47:19;;;;;;;23.83;14.68;;;12.90;99.90;;;;;;4196196;28;20035;-83
2021/07/19 03:49:20;;;;;;;28.33;16.20;;;12.90;99.90;;;;;;4195750;28;20020;-84
2021/07/19 03:51:22;;;;;;;23.13;15.35;;;12.90;99.90;;;;;;4199542;28;20547;-83
2021/07/19 03:53:24;;;;;;;27.98;15.45;;;12.90;99.90;;;;;;4195447;28;20837;-83
2021/07/19 03:55:25;;;;;;;26.77;15.57;;;13.00;99.90;;;;;;4211384;28;20375;-84
2021/07/19 03:57:26;;;;;;;27.40;14.80;;;13.10;99.90;;;;;;4196092;28;20040;-84
2021/07/19 03:59:28;;;;;;;29.27;15.38;;;13.10;99.90;;;;;;4195984;28;20028;-83
2021/07/19 04:01:32;;;;;;;26.75;15.45;;;13.10;99.90;;;;;;4199424;28;20024;-84
2021/07/19 04:03:46;;;;;;;27.70;16.77;;;13.10;99.90;;;;;;4213293;28;20379;-83
2021/07/19 04:05:50;;;;;;;27.13;14.93;;;13.10;99.90;;;;;;4195922;28;20036;-84
2021/07/19 04:07:52;;;;;;;27.67;14.90;;;13.10;99.90;;;;;;4196244;28;20028;-84
2021/07/19 04:09:52;;;;;;;37.03;16.40;;;13.10;99.90;;;;;;4195798;28;20033;-83
2021/07/19 04:11:54;;;;;;;23.30;14.68;;;13.10;99.90;;;;;;4214098;28;20032;-85
2021/07/19 04:13:55;;;;;;;22.73;14.35;;;13.00;99.90;;;;;;4213651;28;20055;-83
2021/07/19 04:15:58;;;;;;;26.88;15.32;;;13.00;99.90;;;;;;4206000;28;20037;-85
2021/07/19 04:17:59;;;;;;;;;;;13.00;99.90;;;;;;4209665;28;20115;-83
2021/07/19 04:20:08;;;;;;;24.98;13.80;;;13.10;99.90;;;;;;4213533;28;20286;-84
2021/07/19 04:22:10;;;;;;;26.13;14.55;;;13.10;99.90;;;;;;4182185;28;20055;-85
2021/07/19 04:24:12;;;;;;;26.77;15.77;;;13.10;99.90;;;;;;4213893;28;20036;-85
2021/07/19 04:26:15;;;;;;;26.52;16.00;;;13.20;99.90;;;;;;4207454;28;20032;-84
2021/07/19 04:28:20;;;;;;;32.45;18.23;;;13.40;99.90;;;;;;4191348;28;20043;-85
2021/07/19 04:30:31;;;;;;;28.38;17.13;;;13.50;99.90;;;;;;4195293;28;20025;-85
2021/07/19 04:32:32;;;;;;;32.97;17.85;;;13.60;99.90;;;;;;4195632;28;20147;-84
2021/07/19 04:34:35;;;;;;;36.15;18.30;;;13.80;99.90;;;;;;4195997;28;20039;-85
2021/07/19 04:36:36;;;;;;;30.30;16.97;;;13.90;99.90;;;;;;4194402;28;20096;-84
2021/07/19 04:38:37;;;;;;;32.60;16.98;;;13.90;99.90;;;;;;4213186;28;20040;-85
2021/07/19 04:40:38;;;;;;;27.90;16.88;;;14.00;99.90;;;;;;4213360;28;20020;-84
2021/07/19 04:42:39;;;;;;;34.50;18.23;;;14.10;99.90;;;;;;4213421;28;20036;-84
2021/07/19 04:44:40;;;;;;;23.52;15.15;;;14.10;99.90;;;;;;4212527;28;20092;-85
2021/07/19 04:46:41;;;;;;;27.23;15.82;;;14.20;99.90;;;;;;4189281;28;20086;-85
2021/07/19 04:48:42;;;;;;;26.50;17.17;;;14.20;99.90;;;;;;4195037;28;20048;-84
2021/07/19 04:50:47;;;;;;;26.08;16.10;;;14.20;99.90;;;;;;4187894;28;20124;-83
2021/07/19 04:52:48;;;;;;;32.65;16.42;;;14.20;99.90;;;;;;4209740;28;20076;-84
2021/07/19 04:54:50;;;;;;;30.33;15.57;;;14.20;99.90;;;;;;4196933;28;20093;-83
2021/07/19 04:57:00;;;;;;;27.38;16.50;;;14.20;99.90;;;;;;4197591;28;20025;-84
2021/07/19 04:59:04;;;;;;;26.20;15.60;;;14.20;99.90;;;;;;4212332;28;20356;-83
2021/07/19 05:01:08;;;;;;;25.48;16.83;;;14.30;99.90;;;;;;4190167;28;20490;-83
2021/07/19 05:03:09;;;;;;;22.17;14.88;;;14.40;99.90;;;;;;4206532;28;20067;-83
2021/07/19 05:05:14;;;;;;;26.67;15.68;;;14.50;99.90;;;;;;4194461;28;20028;-83
2021/07/19 05:07:19;;;;;;;24.33;15.35;;;14.60;99.90;;;;;;4187960;28;20025;-83
2021/07/19 05:09:22;;;;;;;20.60;15.45;;;14.60;99.90;;;;;;4198176;28;20111;-84
2021/07/19 05:11:24;;;;;;;28.13;17.15;;;14.70;99.90;;;;;;4193924;28;20068;-85
2021/07/19 05:13:27;;;;;;;21.57;15.30;;;14.70;99.90;;;;;;4205484;28;20044;-83
2021/07/19 05:15:28;;;;;;;27.58;16.52;;;14.70;99.90;;;;;;4207576;28;20032;-82
2021/07/19 05:17:29;;;;;;;21.90;15.65;;;14.80;99.90;;;;;;4213376;28;20031;-84
2021/07/19 05:19:30;;;;;;;26.92;16.30;;;14.80;99.90;;;;;;4204084;28;20056;-84
2021/07/19 05:21:35;;;;;;;25.95;15.02;;;14.90;99.90;;;;;;4186634;28;20033;-83
2021/07/19 05:23:38;;;;;;;23.05;15.38;;;14.90;99.90;;;;;;4204906;28;20089;-84
2021/07/19 05:25:38;;;;;;;28.45;16.65;;;15.00;99.90;;;;;;4186599;28;20056;-83
2021/07/19 05:28:00;;;;;;;24.48;15.45;;;15.20;99.90;;;;;;4197481;28;20029;-83
2021/07/19 05:30:01;;;;;;;24.65;14.93;;;15.30;99.90;;;;;;4197689;28;20587;-84
2021/07/19 05:32:03;;;;;;;21.25;15.13;;;15.50;99.90;;;;;;4197156;28;20028;-82
2021/07/19 05:34:03;;;;;;;23.92;15.07;;;15.70;99.90;;;;;;4194850;28;20380;-84
2021/07/19 05:36:04;;;;;;;22.65;15.55;;;15.90;99.90;;;;;;4198121;28;20043;-84
2021/07/19 05:38:05;;;;;;;22.85;15.10;;;16.00;99.90;;;;;;4211890;28;20083;-83
2021/07/19 05:40:06;;;;;;;27.67;14.60;;;16.20;99.90;;;;;;4210475;28;20035;-85
2021/07/19 05:42:08;;;;;;;22.45;15.27;;;16.30;99.90;;;;;;4206839;28;20032;-84
2021/07/19 05:44:10;;;;;;;22.75;15.50;;;16.40;99.90;;;;;;4181721;28;20036;-85
2021/07/19 05:46:11;;;;;;;21.13;16.27;;;16.50;99.90;;;;;;4214774;28;20023;-84
2021/07/19 05:48:12;;;;;;;21.38;15.40;;;16.80;99.90;;;;;;4211472;28;20669;-83
2021/07/19 05:50:16;;;;;;;19.83;14.20;;;16.90;99.90;;;;;;4181652;28;20026;-83
2021/07/19 05:52:16;;;;;;;23.90;14.50;;;17.20;99.90;;;;;;4199431;28;20040;-83
2021/07/19 05:54:17;;;;;;;22.85;13.75;;;17.30;99.90;;;;;;4213250;28;20040;-82
2021/07/19 05:56:18;;;;;;;18.20;13.50;;;17.40;99.90;;;;;;4189371;28;20033;-84
2021/07/19 05:58:18;;;;;;;18.25;13.55;;;17.30;99.90;;;;;;4214456;28;20036;-83
2021/07/19 06:00:19;;;;;;;22.20;13.82;;;17.30;99.90;;;;;;4197939;28;20065;-84
2021/07/19 06:02:21;;;;;;;16.90;13.18;;;17.40;99.90;;;;;;4197024;28;20025;-84
2021/07/19 06:04:23;;;;;;;19.65;13.82;;;17.50;99.90;;;;;;4198089;28;20036;-84
2021/07/19 06:06:25;;;;;;;19.42;13.98;;;17.50;99.90;;;;;;4189063;28;20123;-83
2021/07/19 06:08:26;;;;;;;18.93;12.70;;;17.40;99.90;;;;;;4211586;28;20089;-83
2021/07/19 06:10:27;;;;;;;20.45;13.85;;;17.40;99.90;;;;;;4205161;28;20028;-83
2021/07/19 06:12:28;;;;;;;19.83;13.98;;;17.40;99.90;;;;;;4212890;28;20034;-84
2021/07/19 06:14:28;;;;;;;17.13;13.20;;;17.40;99.90;;;;;;4193811;28;20031;-83
2021/07/19 06:16:29;;;;;;;18.25;12.63;;;17.30;99.90;;;;;;4190771;28;20076;-83
2021/07/19 06:18:32;;;;;;;17.75;12.70;;;17.40;99.90;;;;;;4191209;28;20025;-85
2021/07/19 06:20:32;;;;;;;16.55;14.40;;;17.40;99.90;;;;;;4207227;28;20044;-85
2021/07/19 06:22:34;;;;;;;20.90;15.52;;;17.40;99.90;;;;;;4210260;28;20047;-82
2021/07/19 06:24:35;;;;;;;22.08;15.77;;;17.40;99.90;;;;;;4211806;28;20024;-82
2021/07/19 06:26:36;;;;;;;20.27;15.68;;;17.40;99.90;;;;;;4215182;28;20028;-82
2021/07/19 06:28:38;;;;;;;23.98;14.13;;;17.50;99.90;;;;;;4188542;28;20078;-84
2021/07/19 06:30:39;;;;;;;18.98;14.27;;;17.60;99.90;;;;;;4202529;28;20024;-84
2021/07/19 06:32:41;;;;;;;20.95;12.85;;;17.60;99.90;;;;;;4183861;28;20039;-83
2021/07/19 06:34:41;;;;;;;26.55;14.25;;;17.80;99.90;;;;;;4188816;28;20090;-83
2021/07/19 06:36:42;;;;;;;19.70;12.35;;;17.80;99.90;;;;;;4197141;28;20024;-83
2021/07/19 06:38:43;;;;;;;16.52;12.52;;;17.90;99.90;;;;;;4211267;28;20028;-84
2021/07/19 06:40:44;;;;;;;19.75;12.52;;;18.10;99.90;;;;;;4207165;28;20032;-83
2021/07/19 06:42:45;;;;;;;15.40;11.23;;;18.30;99.90;;;;;;4195914;28;20039;-84
2021/07/19 06:44:50;;;;;;;13.57;9.88;;;18.60;99.90;;;;;;4191044;28;20495;-83
2021/07/19 06:46:52;;;;;;;14.95;9.73;;;18.90;99.90;;;;;;4190377;28;20037;-82
2021/07/19 06:48:54;;;;;;;14.25;10.00;;;19.10;99.90;;;;;;4201483;28;20032;-83
2021/07/19 06:50:54;;;;;;;13.88;10.15;;;19.60;99.90;;;;;;4213886;28;20039;-82
2021/07/19 06:52:55;;;;;;;15.95;9.38;;;20.00;99.90;;;;;;4193613;28;20021;-85
2021/07/19 06:54:56;;;;;;;10.77;9.18;;;20.20;99.90;;;;;;4207203;28;20031;-84
2021/07/19 06:56:56;;;;;;;13.95;10.50;;;20.20;99.90;;;;;;4192316;28;20021;-82
2021/07/19 06:58:58;;;;;;;13.75;9.52;;;20.30;99.90;;;;;;4196714;28;20059;-81
2021/07/19 07:00:59;;;;;;;17.67;10.32;;;19.90;99.90;;;;;;4185540;28;20029;-82
2021/07/19 07:02:59;;;;;;;13.73;10.32;;;19.70;99.90;;;;;;4196579;28;20025;-82
2021/07/19 07:05:02;;;;;;;15.60;10.35;;;19.50;99.90;;;;;;4209655;28;20035;-81
2021/07/19 07:07:03;;;;;;;23.95;10.13;;;19.50;99.90;;;;;;4188152;28;20066;-82
2021/07/19 07:09:06;;;;;;;13.18;9.02;;;19.30;99.90;;;;;;4212082;28;20025;-82
2021/07/19 07:11:06;;;;;;;13.13;8.77;;;19.60;99.90;;;;;;4205053;28;20039;-82
2021/07/19 07:13:10;;;;;;;15.65;10.50;;;20.10;99.90;;;;;;4189427;28;20796;-82
2021/07/19 07:15:12;;;;;;;15.05;9.57;;;20.10;99.90;;;;;;4205790;28;20020;-82
2021/07/19 07:17:13;;;;;;;14.48;9.43;;;18.90;99.90;;;;;;4210633;28;20020;-80
2021/07/19 07:19:13;;;;;;;16.38;9.95;;;20.10;99.90;;;;;;4211328;28;20031;-82
2021/07/19 07:21:14;;;;;;;14.07;11.20;;;20.20;99.90;;;;;;4208342;28;20036;-82
2021/07/19 07:23:14;;;;;;;13.38;10.63;;;20.20;99.90;;;;;;4195676;28;20065;-82
2021/07/19 07:25:15;;;;;;;19.40;10.70;;;20.10;99.90;;;;;;4194794;28;20033;-82
2021/07/19 07:27:18;;;;;;;14.60;10.13;;;20.10;99.90;;;;;;4190139;28;20484;-82
2021/07/19 07:29:19;;;;;;;12.45;9.27;;;20.30;99.90;;;;;;4192695;28;20037;-81
2021/07/19 07:31:25;;;;;;;10.23;9.18;;;20.60;99.90;;;;;;4191375;28;20047;-82
2021/07/19 07:33:26;;;;;;;13.38;9.65;;;21.00;99.90;;;;;;4191994;28;20048;-83
2021/07/19 07:35:27;;;;;;;13.30;9.48;;;21.20;99.90;;;;;;4191962;28;20503;-83
2021/07/19 07:37:32;;;;;;;13.70;10.35;;;21.20;99.90;;;;;;4211867;28;20025;-84
2021/07/19 07:39:32;;;;;;;13.75;10.75;;;21.20;99.90;;;;;;4211670;28;20032;-82
2021/07/19 07:41:34;;;;;;;14.43;10.23;;;21.20;99.90;;;;;;4202484;28;20020;-83
2021/07/19 07:43:37;;;;;;;15.05;10.18;;;21.50;99.90;;;;;;4190896;28;20024;-82
2021/07/19 07:45:38;;;;;;;14.63;10.65;;;21.60;99.90;;;;;;4216845;28;20036;-84
2021/07/19 07:47:41;;;;;;;18.70;10.05;;;21.80;99.90;;;;;;4190715;28;20353;-81
2021/07/19 07:49:42;;;;;;;14.25;10.40;;;21.90;99.90;;;;;;4211571;28;20100;-82
2021/07/19 07:51:45;;;;;;;14.00;9.68;;;21.10;99.90;;;;;;4210075;28;20044;-79
2021/07/19 07:53:46;;;;;;;13.55;9.00;;;21.40;99.90;;;;;;4188286;28;20033;-80
2021/07/19 07:55:48;;;;;;;10.93;8.88;;;21.80;99.90;;;;;;4207464;28;20093;-80
2021/07/19 07:57:48;;;;;;;13.75;8.90;;;21.70;99.90;;;;;;4209684;28;20028;-80
2021/07/19 07:59:50;;;;;;;11.88;8.65;;;21.70;99.90;;;;;;4212219;28;20507;-81
2021/07/19 08:01:53;;;;;;;15.68;9.25;;;21.30;99.90;;;;;;4193768;28;20033;-80
2021/07/19 08:03:54;;;;;;;11.80;9.07;;;21.40;99.90;;;;;;4191532;28;20504;-82
2021/07/19 08:05:57;;;;;;;15.75;9.95;;;21.40;99.90;;;;;;4189097;28;20032;-82
2021/07/19 08:07:58;;;;;;;11.63;8.73;;;21.20;99.90;;;;;;4193835;28;20112;-81
2021/07/19 08:10:00;;;;;;;13.75;8.73;;;20.80;99.90;;;;;;4190757;28;20063;-82
2021/07/19 08:12:01;;;;;;;14.05;10.13;;;20.80;99.90;;;;;;4211466;28;20028;-83
2021/07/19 08:14:01;;;;;;;11.45;9.00;;;20.90;99.90;;;;;;4192555;28;20063;-80
2021/07/19 08:16:08;;;;;;;22.77;15.23;;;20.90;99.90;;;;;;4205713;28;20515;-81
2021/07/19 08:18:08;;;;;;;19.75;11.50;;;21.10;99.90;;;;;;4192359;28;20029;-82
2021/07/19 08:20:11;;;;;;;12.80;9.23;;;21.40;99.90;;;;;;4210150;28;20376;-82
2021/07/19 08:22:13;;;;;;;14.85;9.48;;;21.50;99.90;;;;;;4188076;28;20033;-82
2021/07/19 08:24:14;;;;;;;10.85;8.57;;;22.10;99.90;;;;;;4185745;28;20051;-82
2021/07/19 08:26:15;;;;;;;12.57;10.50;;;22.20;99.90;;;;;;4209071;28;20058;-82
2021/07/19 08:28:16;;;;;;;12.63;10.13;;;21.70;99.90;;;;;;4190218;28;20032;-82
2021/07/19 08:30:18;;;;;;;14.07;9.82;;;21.70;99.90;;;;;;4192565;28;20490;-82
2021/07/19 08:32:19;;;;;;;14.02;10.60;;;21.70;99.90;;;;;;4205887;28;20039;-83
2021/07/19 08:34:19;;;;;;;12.27;9.93;;;21.50;99.90;;;;;;4193713;28;20043;-81
2021/07/19 08:36:20;;;;;;;19.08;11.15;;;21.30;99.90;;;;;;4209018;28;20688;-81
2021/07/19 08:38:21;;;;;;;13.70;9.43;;;21.50;99.90;;;;;;4211554;28;20032;-82
2021/07/19 08:40:25;;;;;;;11.73;9.88;;;21.80;99.90;;;;;;4209060;28;20543;-82
2021/07/19 08:42:27;;;;;;;14.13;10.88;;;22.10;99.90;;;;;;4186450;28;20032;-80
2021/07/19 08:44:28;;;;;;;12.70;10.05;;;22.40;99.90;;;;;;4191771;28;20106;-79
2021/07/19 08:46:29;;;;;;;14.57;10.07;;;21.40;99.90;;;;;;4189192;28;20035;-81
2021/07/19 08:48:31;;;;;;;11.48;9.95;;;21.70;99.90;;;;;;4210891;28;20032;-80
2021/07/19 08:50:32;;;;;;;15.00;10.40;;;21.50;99.90;;;;;;4209808;28;20032;-81
2021/07/19 08:52:33;;;;;;;12.25;10.00;;;21.50;99.90;;;;;;4210401;28;20024;-79
2021/07/19 08:54:38;;;;;;;13.23;10.75;;;21.80;99.90;;;;;;4190850;28;20032;-82
2021/07/19 08:56:41;;;;;;;16.08;10.27;;;22.80;99.90;;;;;;4190978;28;20033;-81
2021/07/19 08:58:44;;;;;;;16.90;11.02;;;22.80;99.90;;;;;;4207291;28;20040;-81
2021/07/19 09:00:46;;;;;;;;;;;22.90;99.90;;;;;;4211585;28;20016;-81
2021/07/19 09:02:48;;;;;;;17.13;11.93;;;23.00;99.90;;;;;;4189912;28;19912;-81
2021/07/19 09:04:49;;;;;;;15.07;9.17;;;23.00;99.90;;;;;;4208248;28;20111;-81
2021/07/19 09:06:50;;;;;;;13.38;10.30;;;23.20;99.90;;;;;;4176023;28;20425;-80
2021/07/19 09:08:52;;;;;;;15.50;10.43;;;24.00;99.90;;;;;;4176345;28;20075;-81
2021/07/19 09:10:53;;;;;;;11.13;9.63;;;24.20;99.90;;;;;;4185337;28;20608;-81
2021/07/19 09:12:58;;;;;;;15.00;10.38;;;24.30;99.90;;;;;;4210236;28;20040;-82
2021/07/19 09:14:59;;;;;;;19.73;11.48;;;23.50;99.90;;;;;;4190750;28;20017;-84
2021/07/19 09:17:00;;;;;;;13.88;9.85;;;23.30;99.90;;;;;;4185603;28;20028;-82
2021/07/19 09:19:07;;;;;;;16.95;10.82;;;23.50;99.90;;;;;;4174291;28;20111;-82
2021/07/19 09:21:31;;;;;;;16.00;10.68;;;23.60;99.90;;;;;;4192264;28;20660;-83
2021/07/19 09:23:32;;;;;;;13.25;9.50;;;23.80;99.90;;;;;;4193224;28;20028;-81
2021/07/19 09:25:33;;;;;;;15.35;11.15;;;24.10;99.90;;;;;;4170719;28;20079;-80
2021/07/19 09:27:34;;;;;;;13.88;11.27;;;24.30;99.90;;;;;;4193286;28;20039;-82
2021/07/19 09:29:37;;;;;;;11.75;10.27;;;24.50;99.90;;;;;;4190103;28;20037;-82
2021/07/19 09:31:41;;;;;;;14.10;10.35;;;24.50;99.90;;;;;;4192181;28;20036;-81
2021/07/19 09:33:52;;;;;;;19.23;11.90;;;24.60;99.90;;;;;;4190815;28;20074;-81
2021/07/19 09:35:54;;;;;;;14.25;12.75;;;24.80;99.90;;;;;;4191393;28;20052;-82
2021/07/19 09:38:00;;;;;;;12.73;11.43;;;25.10;99.90;;;;;;4191528;28;20100;-82
2021/07/19 09:40:07;;;;;;;14.80;11.82;;;25.00;99.90;;;;;;4191751;28;20102;-81
2021/07/19 09:42:14;;;;;;;18.35;12.00;;;25.30;99.90;;;;;;4195628;28;20111;-83
2021/07/19 09:44:15;;;;;;;13.48;11.70;;;25.10;99.90;;;;;;4194355;28;20035;-83
2021/07/19 09:46:16;;;;;;;13.50;12.10;;;24.50;99.90;;;;;;4193825;28;20091;-83
2021/07/19 09:48:21;;;;;;;14.50;12.38;;;24.60;99.90;;;;;;4193667;28;20506;-81
2021/07/19 09:50:22;;;;;;;13.40;11.85;;;24.20;99.90;;;;;;4193968;28;20025;-82
2021/07/19 09:52:32;;;;;;;15.75;13.15;;;24.40;99.90;;;;;;4195828;28;20051;-82
2021/07/19 09:54:42;;;;;;;16.90;12.50;;;24.30;99.90;;;;;;4192632;28;20032;-81
2021/07/19 09:56:44;;;;;;;15.65;11.93;;;24.10;99.90;;;;;;4197905;28;20041;-83
2021/07/19 09:58:47;;;;;;;19.50;12.70;;;23.80;99.90;;;;;;4196880;28;20492;-83
2021/07/19 10:00:48;;;;;;;15.95;10.90;;;23.60;99.90;;;;;;4195277;28;20111;-82
2021/07/19 10:02:50;;;;;;;16.20;12.77;;;23.70;99.90;;;;;;4191388;28;20036;-84
2021/07/19 10:04:51;;;;;;;17.05;12.00;;;24.00;99.90;;;;;;4195517;28;20056;-83
2021/07/19 10:06:54;;;;;;;14.60;11.45;;;24.20;99.90;;;;;;4192137;28;20430;-83
2021/07/19 10:08:58;;;;;;;12.75;11.18;;;24.30;99.90;;;;;;4197910;28;20031;-83
2021/07/19 10:10:59;;;;;;;20.20;13.00;;;24.90;99.90;;;;;;4194895;28;20032;-83
2021/07/19 10:13:01;;;;;;;16.42;13.95;;;;;;;;;;4192336;28;20078;-84
2021/07/19 10:15:05;;;;;;;13.88;12.48;;;25.70;99.90;;;;;;4188419;28;20033;-84
2021/07/19 10:17:07;;;;;;;12.93;10.77;;;26.40;99.90;;;;;;4195614;28;20035;-83
2021/07/19 10:19:08;;;;;;;13.55;11.05;;;26.30;99.90;;;;;;4197903;28;20559;-85
2021/07/19 10:21:09;;;;;;;13.13;10.32;;;26.20;99.90;;;;;;4190672;28;20040;-85
2021/07/19 10:23:13;;;;;;;13.23;10.65;;;25.80;99.90;;;;;;4213716;28;20032;-84
2021/07/19 10:25:15;;;;;;;14.85;11.23;;;25.20;99.90;;;;;;4212617;28;20024;-85